sensor_id;sensor_type;location;lat;lon;timestamp;temperature;humidity
54960;DHT22;40860;51.710;8.736;2022-12-20T00:01:17;10.60;99.90
54960;DHT22;40860;51.710;8.736;2022-12-20T00:05:21;10.50;99.90
54960;DHT22;40860;51.710;8.736;2022-12-20T00:09:24;10.50;99.90
54960;DHT22;40860;51.710;8.736;2022-12-20T00:13:27;10.50;99.90
54960;DHT22;40860;51.710;8.736;2022-12-20T00:17:30;10.50;99.90
54960;DHT22;40860;51.710;8.736;2022-12-20T00:21:35;10.40;99.90
54960;DHT22;40860;51.710;8.736;2022-12-20T00:25:38;10.40;99.90
54960;DHT22;40860;51.710;8.736;2022-12-20T00:29:41;10.40;99.90
54960;DHT22;40860;51.710;8.736;2022-12-20T00:33:46;10.30;99.90
54960;DHT22;40860;51.710;8.736;2022-12-20T00:37:51;10.20;99.90
54960;DHT22;40860;51.710;8.736;2022-12-20T00:41:54;10.20;99.90
54960;DHT22;40860;51.710;8.736;2022-12-20T00:45:57;10.10;99.90
54960;DHT22;40860;51.710;8.736;2022-12-20T00:50:00;10.20;99.90
54960;DHT22;40860;51.710;8.736;2022-12-20T00:54:04;10.30;99.90
54960;DHT22;40860;51.710;8.736;2022-12-20T00:58:07;10.40;99.90
54960;DHT22;40860;51.710;8.736;2022-12-20T01:02:10;10.40;99.90
54960;DHT22;40860;51.710;8.736;2022-12-20T01:06:15;10.40;99.90
54960;DHT22;40860;51.710;8.736;2022-12-20T01:10:19;10.40;99.90
54960;DHT22;40860;51.710;8.736;2022-12-20T01:14:22;10.40;99.90
54960;DHT22;40860;51.710;8.736;2022-12-20T01:18:25;10.50;99.90
54960;DHT22;40860;51.710;8.736;2022-12-20T01:22:28;10.50;99.90
54960;DHT22;40860;51.710;8.736;2022-12-20T01:26:32;10.50;99.90
54960;DHT22;40860;51.710;8.736;2022-12-20T01:30:39;10.50;99.90
54960;DHT22;40860;51.710;8.736;2022-12-20T01:34:42;10.50;99.90
54960;DHT22;40860;51.710;8.736;2022-12-20T01:38:45;10.60;99.90
54960;DHT22;40860;51.710;8.736;2022-12-20T01:42:49;10.60;99.90
54960;DHT22;40860;51.710;8.736;2022-12-20T01:46:53;10.70;99.90
54960;DHT22;40860;51.710;8.736;2022-12-20T01:50:56;10.70;99.90
54960;DHT22;40860;51.710;8.736;2022-12-20T01:55:05;10.70;99.90
54960;DHT22;40860;51.710;8.736;2022-12-20T01:59:10;10.80;99.90
54960;DHT22;40860;51.710;8.736;2022-12-20T02:03:15;10.80;99.90
54960;DHT22;40860;51.710;8.736;2022-12-20T02:07:21;10.80;99.90
54960;DHT22;40860;51.710;8.736;2022-12-20T02:11:45;10.70;99.90
54960;DHT22;40860;51.710;8.736;2022-12-20T02:15:54;10.70;99.90
54960;DHT22;40860;51.710;8.736;2022-12-20T02:24:58;10.60;99.90
54960;DHT22;40860;51.710;8.736;2022-12-20T02:29:19;10.70;99.90
54960;DHT22;40860;51.710;8.736;2022-12-20T02:33:26;10.70;99.80
54960;DHT22;40860;51.710;8.736;2022-12-20T02:37:30;10.70;99.70
54960;DHT22;40860;51.710;8.736;2022-12-20T02:41:36;10.70;99.70
54960;DHT22;40860;51.710;8.736;2022-12-20T02:45:40;10.70;99.60
54960;DHT22;40860;51.710;8.736;2022-12-20T02:49:46;10.70;99.60
54960;DHT22;40860;51.710;8.736;2022-12-20T02:53:52;10.70;99.50
54960;DHT22;40860;51.710;8.736;2022-12-20T02:57:58;10.60;99.60
54960;DHT22;40860;51.710;8.736;2022-12-20T03:02:04;10.50;99.60
54960;DHT22;40860;51.710;8.736;2022-12-20T03:06:09;10.40;99.70
54960;DHT22;40860;51.710;8.736;2022-12-20T03:10:12;10.50;99.60
54960;DHT22;40860;51.710;8.736;2022-12-20T03:14:15;10.60;99.50
54960;DHT22;40860;51.710;8.736;2022-12-20T03:18:20;10.60;99.40
54960;DHT22;40860;51.710;8.736;2022-12-20T03:22:24;10.60;99.20
54960;DHT22;40860;51.710;8.736;2022-12-20T03:26:28;10.50;99.00
54960;DHT22;40860;51.710;8.736;2022-12-20T03:30:33;10.50;98.90
54960;DHT22;40860;51.710;8.736;2022-12-20T03:34:37;10.50;98.70
54960;DHT22;40860;51.710;8.736;2022-12-20T03:38:41;10.50;98.60
54960;DHT22;40860;51.710;8.736;2022-12-20T03:42:44;10.50;98.40
54960;DHT22;40860;51.710;8.736;2022-12-20T03:46:47;10.60;98.20
54960;DHT22;40860;51.710;8.736;2022-12-20T03:50:50;10.60;98.20
54960;DHT22;40860;51.710;8.736;2022-12-20T03:54:54;10.60;97.90
54960;DHT22;40860;51.710;8.736;2022-12-20T03:59:04;10.60;97.80
54960;DHT22;40860;51.710;8.736;2022-12-20T04:03:07;10.70;97.60
54960;DHT22;40860;51.710;8.736;2022-12-20T04:07:11;10.80;97.30
54960;DHT22;40860;51.710;8.736;2022-12-20T04:11:19;10.90;97.10
54960;DHT22;40860;51.710;8.736;2022-12-20T04:15:45;11.00;96.90
54960;DHT22;40860;51.710;8.736;2022-12-20T04:19:51;10.90;96.80
54960;DHT22;40860;51.710;8.736;2022-12-20T04:23:54;11.00;96.80
54960;DHT22;40860;51.710;8.736;2022-12-20T04:28:02;11.00;96.80
54960;DHT22;40860;51.710;8.736;2022-12-20T04:32:05;11.00;96.50
54960;DHT22;40860;51.710;8.736;2022-12-20T04:36:08;10.90;96.60
54960;DHT22;40860;51.710;8.736;2022-12-20T04:40:14;11.00;96.40
54960;DHT22;40860;51.710;8.736;2022-12-20T04:44:24;10.80;96.50
54960;DHT22;40860;51.710;8.736;2022-12-20T04:48:28;10.70;96.70
54960;DHT22;40860;51.710;8.736;2022-12-20T04:52:51;10.70;96.80
54960;DHT22;40860;51.710;8.736;2022-12-20T04:57:11;10.70;96.90
54960;DHT22;40860;51.710;8.736;2022-12-20T05:01:16;10.50;96.90
54960;DHT22;40860;51.710;8.736;2022-12-20T05:05:25;10.30;97.10
54960;DHT22;40860;51.710;8.736;2022-12-20T05:09:31;10.10;97.10
54960;DHT22;40860;51.710;8.736;2022-12-20T05:13:34;10.00;97.50
54960;DHT22;40860;51.710;8.736;2022-12-20T05:17:41;9.80;97.50
54960;DHT22;40860;51.710;8.736;2022-12-20T05:21:47;9.60;97.80
54960;DHT22;40860;51.710;8.736;2022-12-20T05:26:10;9.50;98.00
54960;DHT22;40860;51.710;8.736;2022-12-20T05:30:21;9.40;98.30
54960;DHT22;40860;51.710;8.736;2022-12-20T05:34:26;9.30;98.50
54960;DHT22;40860;51.710;8.736;2022-12-20T05:38:30;9.20;98.60
54960;DHT22;40860;51.710;8.736;2022-12-20T05:42:34;9.20;98.90
54960;DHT22;40860;51.710;8.736;2022-12-20T05:46:37;9.10;99.20
54960;DHT22;40860;51.710;8.736;2022-12-20T05:50:46;9.10;99.40
54960;DHT22;40860;51.710;8.736;2022-12-20T05:55:01;9.00;99.50
54960;DHT22;40860;51.710;8.736;2022-12-20T05:59:05;9.00;99.70
54960;DHT22;40860;51.710;8.736;2022-12-20T06:03:10;8.90;99.90
54960;DHT22;40860;51.710;8.736;2022-12-20T06:07:16;8.80;99.90
54960;DHT22;40860;51.710;8.736;2022-12-20T06:11:24;8.70;99.90
54960;DHT22;40860;51.710;8.736;2022-12-20T06:15:42;8.70;99.90
54960;DHT22;40860;51.710;8.736;2022-12-20T06:19:45;8.60;99.90
54960;DHT22;40860;51.710;8.736;2022-12-20T06:23:51;8.50;99.90
54960;DHT22;40860;51.710;8.736;2022-12-20T06:27:55;8.40;99.90
54960;DHT22;40860;51.710;8.736;2022-12-20T06:31:59;8.40;99.90
54960;DHT22;40860;51.710;8.736;2022-12-20T06:36:02;8.40;99.90
54960;DHT22;40860;51.710;8.736;2022-12-20T06:40:08;8.40;99.90
54960;DHT22;40860;51.710;8.736;2022-12-20T06:44:11;8.40;99.90
54960;DHT22;40860;51.710;8.736;2022-12-20T06:48:14;8.50;99.90
54960;DHT22;40860;51.710;8.736;2022-12-20T06:52:18;8.50;99.90
54960;DHT22;40860;51.710;8.736;2022-12-20T06:56:25;8.50;99.90
54960;DHT22;40860;51.710;8.736;2022-12-20T07:00:28;8.60;99.90
54960;DHT22;40860;51.710;8.736;2022-12-20T07:04:32;8.60;99.90
54960;DHT22;40860;51.710;8.736;2022-12-20T07:08:34;8.60;99.90
54960;DHT22;40860;51.710;8.736;2022-12-20T07:12:39;8.60;99.90
54960;DHT22;40860;51.710;8.736;2022-12-20T07:16:48;8.60;99.90
54960;DHT22;40860;51.710;8.736;2022-12-20T07:20:51;8.60;99.90
54960;DHT22;40860;51.710;8.736;2022-12-20T07:24:54;8.70;99.90
54960;DHT22;40860;51.710;8.736;2022-12-20T07:28:59;8.80;99.90
54960;DHT22;40860;51.710;8.736;2022-12-20T07:33:01;8.80;99.90
54960;DHT22;40860;51.710;8.736;2022-12-20T07:37:04;8.80;99.90
54960;DHT22;40860;51.710;8.736;2022-12-20T07:41:09;8.80;99.90
54960;DHT22;40860;51.710;8.736;2022-12-20T07:45:15;8.80;99.90
54960;DHT22;40860;51.710;8.736;2022-12-20T07:49:18;8.80;99.90
54960;DHT22;40860;51.710;8.736;2022-12-20T07:53:21;8.80;99.90
54960;DHT22;40860;51.710;8.736;2022-12-20T07:57:29;8.80;99.90
54960;DHT22;40860;51.710;8.736;2022-12-20T08:01:34;8.80;99.90
54960;DHT22;40860;51.710;8.736;2022-12-20T08:05:41;8.80;99.90
54960;DHT22;40860;51.710;8.736;2022-12-20T08:09:46;8.80;99.90
54960;DHT22;40860;51.710;8.736;2022-12-20T08:13:49;8.80;99.90
54960;DHT22;40860;51.710;8.736;2022-12-20T08:17:59;8.70;99.90
54960;DHT22;40860;51.710;8.736;2022-12-20T08:22:02;8.70;99.90
54960;DHT22;40860;51.710;8.736;2022-12-20T08:26:06;8.80;99.90
54960;DHT22;40860;51.710;8.736;2022-12-20T08:30:09;8.90;99.90
54960;DHT22;40860;51.710;8.736;2022-12-20T08:34:14;8.90;99.90
54960;DHT22;40860;51.710;8.736;2022-12-20T08:38:17;9.00;99.90
54960;DHT22;40860;51.710;8.736;2022-12-20T08:42:20;8.90;99.90
54960;DHT22;40860;51.710;8.736;2022-12-20T08:46:23;9.00;99.90
54960;DHT22;40860;51.710;8.736;2022-12-20T08:50:27;9.10;99.90
54960;DHT22;40860;51.710;8.736;2022-12-20T08:54:30;9.20;99.70
54960;DHT22;40860;51.710;8.736;2022-12-20T08:58:33;9.20;99.70
54960;DHT22;40860;51.710;8.736;2022-12-20T09:02:37;9.30;99.70
54960;DHT22;40860;51.710;8.736;2022-12-20T09:06:43;9.30;99.60
54960;DHT22;40860;51.710;8.736;2022-12-20T09:10:46;9.30;99.50
54960;DHT22;40860;51.710;8.736;2022-12-20T09:14:49;9.30;99.50
54960;DHT22;40860;51.710;8.736;2022-12-20T09:18:54;9.40;99.40
54960;DHT22;40860;51.710;8.736;2022-12-20T09:23:07;9.50;99.10
54960;DHT22;40860;51.710;8.736;2022-12-20T09:27:10;9.50;98.80
54960;DHT22;40860;51.710;8.736;2022-12-20T09:31:14;9.50;98.60
54960;DHT22;40860;51.710;8.736;2022-12-20T09:35:17;9.50;98.40
54960;DHT22;40860;51.710;8.736;2022-12-20T09:39:25;9.50;98.50
54960;DHT22;40860;51.710;8.736;2022-12-20T09:43:28;9.40;98.60
54960;DHT22;40860;51.710;8.736;2022-12-20T09:47:33;9.50;98.50
54960;DHT22;40860;51.710;8.736;2022-12-20T09:56:09;9.60;98.40
54960;DHT22;40860;51.710;8.736;2022-12-20T10:00:16;9.60;98.30
54960;DHT22;40860;51.710;8.736;2022-12-20T10:04:21;9.70;98.20
54960;DHT22;40860;51.710;8.736;2022-12-20T10:08:43;9.70;98.20
54960;DHT22;40860;51.710;8.736;2022-12-20T10:12:55;9.70;98.10
54960;DHT22;40860;51.710;8.736;2022-12-20T10:17:07;9.80;98.00
54960;DHT22;40860;51.710;8.736;2022-12-20T10:21:18;9.80;97.80
54960;DHT22;40860;51.710;8.736;2022-12-20T10:25:23;9.80;97.80
54960;DHT22;40860;51.710;8.736;2022-12-20T10:29:32;9.80;97.80
54960;DHT22;40860;51.710;8.736;2022-12-20T10:33:34;9.80;97.80
54960;DHT22;40860;51.710;8.736;2022-12-20T10:37:37;9.70;97.70
54960;DHT22;40860;51.710;8.736;2022-12-20T10:42:00;9.70;97.70
54960;DHT22;40860;51.710;8.736;2022-12-20T10:46:06;9.70;97.70
54960;DHT22;40860;51.710;8.736;2022-12-20T10:50:14;9.70;97.80
54960;DHT22;40860;51.710;8.736;2022-12-20T10:54:22;9.80;97.60
54960;DHT22;40860;51.710;8.736;2022-12-20T10:58:31;9.80;97.70
54960;DHT22;40860;51.710;8.736;2022-12-20T11:02:39;9.80;97.70
54960;DHT22;40860;51.710;8.736;2022-12-20T11:06:44;9.90;97.60
54960;DHT22;40860;51.710;8.736;2022-12-20T11:10:47;9.90;97.60
54960;DHT22;40860;51.710;8.736;2022-12-20T11:15:06;9.90;97.60
54960;DHT22;40860;51.710;8.736;2022-12-20T11:19:32;9.90;97.70
54960;DHT22;40860;51.710;8.736;2022-12-20T11:23:42;10.00;97.70
54960;DHT22;40860;51.710;8.736;2022-12-20T11:27:56;10.00;97.70
54960;DHT22;40860;51.710;8.736;2022-12-20T11:32:07;10.20;97.60
54960;DHT22;40860;51.710;8.736;2022-12-20T11:36:27;10.30;97.50
54960;DHT22;40860;51.710;8.736;2022-12-20T11:40:39;10.30;97.40
54960;DHT22;40860;51.710;8.736;2022-12-20T11:44:52;10.50;97.30
54960;DHT22;40860;51.710;8.736;2022-12-20T11:49:30;10.60;97.20
54960;DHT22;40860;51.710;8.736;2022-12-20T11:53:41;10.60;97.10
54960;DHT22;40860;51.710;8.736;2022-12-20T11:57:49;10.70;97.10
54960;DHT22;40860;51.710;8.736;2022-12-20T12:02:21;10.80;96.90
54960;DHT22;40860;51.710;8.736;2022-12-20T12:06:29;10.90;96.70
54960;DHT22;40860;51.710;8.736;2022-12-20T12:10:36;11.00;96.40
54960;DHT22;40860;51.710;8.736;2022-12-20T12:14:49;11.10;96.10
54960;DHT22;40860;51.710;8.736;2022-12-20T12:18:57;11.20;96.00
54960;DHT22;40860;51.710;8.736;2022-12-20T12:23:04;11.20;95.90
54960;DHT22;40860;51.710;8.736;2022-12-20T12:27:21;11.30;95.80
54960;DHT22;40860;51.710;8.736;2022-12-20T12:31:28;11.30;95.70
54960;DHT22;40860;51.710;8.736;2022-12-20T12:35:46;11.40;95.50
54960;DHT22;40860;51.710;8.736;2022-12-20T12:40:13;11.40;95.60
54960;DHT22;40860;51.710;8.736;2022-12-20T12:44:36;11.40;95.50
54960;DHT22;40860;51.710;8.736;2022-12-20T12:48:44;11.50;95.20
54960;DHT22;40860;51.710;8.736;2022-12-20T12:52:50;11.60;95.00
54960;DHT22;40860;51.710;8.736;2022-12-20T12:56:59;11.60;94.80
54960;DHT22;40860;51.710;8.736;2022-12-20T13:01:08;11.60;94.90
54960;DHT22;40860;51.710;8.736;2022-12-20T13:05:31;11.60;95.00
54960;DHT22;40860;51.710;8.736;2022-12-20T13:09:38;11.50;95.00
54960;DHT22;40860;51.710;8.736;2022-12-20T13:13:41;11.50;95.00
54960;DHT22;40860;51.710;8.736;2022-12-20T13:17:49;11.60;94.80
54960;DHT22;40860;51.710;8.736;2022-12-20T13:21:55;11.50;94.90
54960;DHT22;40860;51.710;8.736;2022-12-20T13:25:58;11.40;95.00
54960;DHT22;40860;51.710;8.736;2022-12-20T13:30:22;11.40;95.20
54960;DHT22;40860;51.710;8.736;2022-12-20T13:34:53;11.40;95.30
54960;DHT22;40860;51.710;8.736;2022-12-20T13:38:59;11.40;95.50
54960;DHT22;40860;51.710;8.736;2022-12-20T13:43:05;11.40;95.40
54960;DHT22;40860;51.710;8.736;2022-12-20T13:47:27;11.50;95.70
54960;DHT22;40860;51.710;8.736;2022-12-20T13:51:32;11.50;95.40
54960;DHT22;40860;51.710;8.736;2022-12-20T13:55:37;11.70;95.60
54960;DHT22;40860;51.710;8.736;2022-12-20T13:59:44;11.90;95.50
54960;DHT22;40860;51.710;8.736;2022-12-20T14:03:48;12.00;95.30
54960;DHT22;40860;51.710;8.736;2022-12-20T14:07:57;12.10;95.30
54960;DHT22;40860;51.710;8.736;2022-12-20T14:12:03;12.10;95.20
54960;DHT22;40860;51.710;8.736;2022-12-20T14:16:08;12.10;95.10
54960;DHT22;40860;51.710;8.736;2022-12-20T14:20:14;12.20;95.20
54960;DHT22;40860;51.710;8.736;2022-12-20T14:24:21;12.10;95.20
54960;DHT22;40860;51.710;8.736;2022-12-20T14:28:28;12.20;95.10
54960;DHT22;40860;51.710;8.736;2022-12-20T14:32:34;12.20;95.00
54960;DHT22;40860;51.710;8.736;2022-12-20T14:36:38;12.20;95.10
54960;DHT22;40860;51.710;8.736;2022-12-20T14:40:42;12.20;95.10
54960;DHT22;40860;51.710;8.736;2022-12-20T14:45:05;12.10;95.20
54960;DHT22;40860;51.710;8.736;2022-12-20T14:49:17;12.10;95.20
54960;DHT22;40860;51.710;8.736;2022-12-20T14:53:23;12.10;95.30
54960;DHT22;40860;51.710;8.736;2022-12-20T14:57:43;12.00;95.30
54960;DHT22;40860;51.710;8.736;2022-12-20T15:01:46;12.00;95.50
54960;DHT22;40860;51.710;8.736;2022-12-20T15:05:50;12.00;95.70
54960;DHT22;40860;51.710;8.736;2022-12-20T15:09:53;12.00;95.70
54960;DHT22;40860;51.710;8.736;2022-12-20T15:13:57;12.00;95.70
54960;DHT22;40860;51.710;8.736;2022-12-20T15:18:00;12.00;95.60
54960;DHT22;40860;51.710;8.736;2022-12-20T15:22:03;12.00;96.00
54960;DHT22;40860;51.710;8.736;2022-12-20T15:26:07;11.90;96.10
54960;DHT22;40860;51.710;8.736;2022-12-20T15:30:13;11.80;96.10
54960;DHT22;40860;51.710;8.736;2022-12-20T15:34:20;11.80;96.10
54960;DHT22;40860;51.710;8.736;2022-12-20T15:38:26;11.80;96.70
54960;DHT22;40860;51.710;8.736;2022-12-20T15:42:50;11.70;97.30
54960;DHT22;40860;51.710;8.736;2022-12-20T15:46:54;11.60;97.70
54960;DHT22;40860;51.710;8.736;2022-12-20T15:50:58;11.40;98.10
54960;DHT22;40860;51.710;8.736;2022-12-20T15:55:01;11.30;98.40
54960;DHT22;40860;51.710;8.736;2022-12-20T15:59:03;11.10;98.90
54960;DHT22;40860;51.710;8.736;2022-12-20T16:03:29;11.00;99.30
54960;DHT22;40860;51.710;8.736;2022-12-20T16:07:33;10.90;99.70
54960;DHT22;40860;51.710;8.736;2022-12-20T16:11:36;10.80;99.90
54960;DHT22;40860;51.710;8.736;2022-12-20T16:15:39;10.80;99.90
54960;DHT22;40860;51.710;8.736;2022-12-20T16:19:43;10.80;99.90
54960;DHT22;40860;51.710;8.736;2022-12-20T16:23:46;10.70;99.90
54960;DHT22;40860;51.710;8.736;2022-12-20T16:27:50;10.60;99.90
54960;DHT22;40860;51.710;8.736;2022-12-20T16:31:53;10.60;99.90
54960;DHT22;40860;51.710;8.736;2022-12-20T16:35:57;10.60;99.90
54960;DHT22;40860;51.710;8.736;2022-12-20T16:40:00;10.50;99.90
54960;DHT22;40860;51.710;8.736;2022-12-20T16:44:04;10.50;99.90
54960;DHT22;40860;51.710;8.736;2022-12-20T16:48:07;10.50;99.90
54960;DHT22;40860;51.710;8.736;2022-12-20T16:52:13;10.50;99.90
54960;DHT22;40860;51.710;8.736;2022-12-20T16:56:17;10.50;99.90
54960;DHT22;40860;51.710;8.736;2022-12-20T17:00:22;10.50;99.90
54960;DHT22;40860;51.710;8.736;2022-12-20T17:04:25;10.40;99.90
54960;DHT22;40860;51.710;8.736;2022-12-20T17:08:30;10.40;99.90
54960;DHT22;40860;51.710;8.736;2022-12-20T17:12:50;10.40;99.90
54960;DHT22;40860;51.710;8.736;2022-12-20T17:16:53;10.30;99.90
54960;DHT22;40860;51.710;8.736;2022-12-20T17:20:56;10.30;99.90
54960;DHT22;40860;51.710;8.736;2022-12-20T17:25:01;10.10;99.90
54960;DHT22;40860;51.710;8.736;2022-12-20T17:29:04;10.00;99.90
54960;DHT22;40860;51.710;8.736;2022-12-20T17:33:09;9.90;99.90
54960;DHT22;40860;51.710;8.736;2022-12-20T17:37:15;9.80;99.90
54960;DHT22;40860;51.710;8.736;2022-12-20T17:41:25;9.70;99.90
54960;DHT22;40860;51.710;8.736;2022-12-20T17:45:30;9.60;99.90
54960;DHT22;40860;51.710;8.736;2022-12-20T17:49:37;9.60;99.90
54960;DHT22;40860;51.710;8.736;2022-12-20T17:53:40;9.40;99.90
54960;DHT22;40860;51.710;8.736;2022-12-20T17:57:45;9.30;99.90
54960;DHT22;40860;51.710;8.736;2022-12-20T18:01:48;9.20;99.90
54960;DHT22;40860;51.710;8.736;2022-12-20T18:05:52;9.20;99.90
54960;DHT22;40860;51.710;8.736;2022-12-20T18:09:55;9.20;99.90
54960;DHT22;40860;51.710;8.736;2022-12-20T18:14:00;9.10;99.90
54960;DHT22;40860;51.710;8.736;2022-12-20T18:18:03;9.10;99.90
54960;DHT22;40860;51.710;8.736;2022-12-20T18:22:06;9.10;99.90
54960;DHT22;40860;51.710;8.736;2022-12-20T18:26:10;9.10;99.90
54960;DHT22;40860;51.710;8.736;2022-12-20T18:30:15;9.20;99.90
54960;DHT22;40860;51.710;8.736;2022-12-20T18:34:18;9.20;99.90
54960;DHT22;40860;51.710;8.736;2022-12-20T18:38:21;9.20;99.90
54960;DHT22;40860;51.710;8.736;2022-12-20T18:42:24;9.20;99.90
54960;DHT22;40860;51.710;8.736;2022-12-20T18:46:29;9.20;99.90
54960;DHT22;40860;51.710;8.736;2022-12-20T18:50:34;9.30;99.90
54960;DHT22;40860;51.710;8.736;2022-12-20T18:54:38;9.30;99.90
54960;DHT22;40860;51.710;8.736;2022-12-20T18:58:42;9.30;99.90
54960;DHT22;40860;51.710;8.736;2022-12-20T19:02:46;9.30;99.90
54960;DHT22;40860;51.710;8.736;2022-12-20T19:06:50;9.40;99.90
54960;DHT22;40860;51.710;8.736;2022-12-20T19:10:53;9.30;99.90
54960;DHT22;40860;51.710;8.736;2022-12-20T19:14:58;9.30;99.90
54960;DHT22;40860;51.710;8.736;2022-12-20T19:19:03;9.40;99.90
54960;DHT22;40860;51.710;8.736;2022-12-20T19:23:06;9.40;99.90
54960;DHT22;40860;51.710;8.736;2022-12-20T19:27:08;9.50;99.90
54960;DHT22;40860;51.710;8.736;2022-12-20T19:31:13;9.50;99.90
54960;DHT22;40860;51.710;8.736;2022-12-20T19:35:24;9.50;99.90
54960;DHT22;40860;51.710;8.736;2022-12-20T19:39:46;9.50;99.90
54960;DHT22;40860;51.710;8.736;2022-12-20T19:43:49;9.60;99.90
54960;DHT22;40860;51.710;8.736;2022-12-20T19:47:52;9.70;99.90
54960;DHT22;40860;51.710;8.736;2022-12-20T19:51:57;9.60;99.90
54960;DHT22;40860;51.710;8.736;2022-12-20T19:56:01;9.60;99.90
54960;DHT22;40860;51.710;8.736;2022-12-20T20:00:05;9.70;99.90
54960;DHT22;40860;51.710;8.736;2022-12-20T20:04:12;9.70;99.90
54960;DHT22;40860;51.710;8.736;2022-12-20T20:08:16;9.70;99.90
54960;DHT22;40860;51.710;8.736;2022-12-20T20:12:19;9.70;99.90
54960;DHT22;40860;51.710;8.736;2022-12-20T20:16:22;9.70;99.90
54960;DHT22;40860;51.710;8.736;2022-12-20T20:20:27;9.80;99.90
54960;DHT22;40860;51.710;8.736;2022-12-20T20:24:33;9.80;99.90
54960;DHT22;40860;51.710;8.736;2022-12-20T20:28:36;9.80;99.90
54960;DHT22;40860;51.710;8.736;2022-12-20T20:32:46;9.80;99.90
54960;DHT22;40860;51.710;8.736;2022-12-20T20:36:48;9.80;99.90
54960;DHT22;40860;51.710;8.736;2022-12-20T20:40:53;9.80;99.90
54960;DHT22;40860;51.710;8.736;2022-12-20T20:44:57;9.90;99.90
54960;DHT22;40860;51.710;8.736;2022-12-20T20:49:00;9.90;99.90
54960;DHT22;40860;51.710;8.736;2022-12-20T20:53:03;9.90;99.90
54960;DHT22;40860;51.710;8.736;2022-12-20T20:57:08;9.90;99.90
54960;DHT22;40860;51.710;8.736;2022-12-20T21:01:12;9.80;99.90
54960;DHT22;40860;51.710;8.736;2022-12-20T21:05:15;9.70;99.90
54960;DHT22;40860;51.710;8.736;2022-12-20T21:09:38;9.70;99.90
54960;DHT22;40860;51.710;8.736;2022-12-20T21:13:42;9.70;99.90
54960;DHT22;40860;51.710;8.736;2022-12-20T21:17:45;9.70;99.90
54960;DHT22;40860;51.710;8.736;2022-12-20T21:21:47;9.70;99.90
54960;DHT22;40860;51.710;8.736;2022-12-20T21:25:54;9.70;99.90
54960;DHT22;40860;51.710;8.736;2022-12-20T21:29:59;9.70;99.90
54960;DHT22;40860;51.710;8.736;2022-12-20T21:34:02;9.90;99.90
54960;DHT22;40860;51.710;8.736;2022-12-20T21:38:05;10.20;99.90
54960;DHT22;40860;51.710;8.736;2022-12-20T21:42:08;10.30;99.90
54960;DHT22;40860;51.710;8.736;2022-12-20T21:46:12;10.50;99.90
54960;DHT22;40860;51.710;8.736;2022-12-20T21:50:15;10.60;99.90
54960;DHT22;40860;51.710;8.736;2022-12-20T21:54:18;10.60;99.90
54960;DHT22;40860;51.710;8.736;2022-12-20T21:58:21;10.60;99.90
54960;DHT22;40860;51.710;8.736;2022-12-20T22:02:25;10.70;99.90
54960;DHT22;40860;51.710;8.736;2022-12-20T22:06:29;10.70;99.90
54960;DHT22;40860;51.710;8.736;2022-12-20T22:10:32;10.70;99.90
54960;DHT22;40860;51.710;8.736;2022-12-20T22:14:35;10.70;99.90
54960;DHT22;40860;51.710;8.736;2022-12-20T22:18:40;10.70;99.90
54960;DHT22;40860;51.710;8.736;2022-12-20T22:22:43;10.70;99.90
54960;DHT22;40860;51.710;8.736;2022-12-20T22:26:46;10.70;99.90
54960;DHT22;40860;51.710;8.736;2022-12-20T22:30:49;10.70;99.90
54960;DHT22;40860;51.710;8.736;2022-12-20T22:34:54;10.60;99.90
54960;DHT22;40860;51.710;8.736;2022-12-20T22:38:57;10.60;99.90
54960;DHT22;40860;51.710;8.736;2022-12-20T22:43:00;10.50;99.90
54960;DHT22;40860;51.710;8.736;2022-12-20T22:47:02;10.50;99.90
54960;DHT22;40860;51.710;8.736;2022-12-20T22:51:10;10.50;99.90
54960;DHT22;40860;51.710;8.736;2022-12-20T22:55:13;10.40;99.90
54960;DHT22;40860;51.710;8.736;2022-12-20T22:59:16;10.40;99.90
54960;DHT22;40860;51.710;8.736;2022-12-20T23:03:18;10.30;99.90
54960;DHT22;40860;51.710;8.736;2022-12-20T23:07:23;10.30;99.90
54960;DHT22;40860;51.710;8.736;2022-12-20T23:11:27;10.20;99.90
54960;DHT22;40860;51.710;8.736;2022-12-20T23:15:47;10.10;99.90
54960;DHT22;40860;51.710;8.736;2022-12-20T23:19:50;10.00;99.90
54960;DHT22;40860;51.710;8.736;2022-12-20T23:24:13;10.00;99.90
54960;DHT22;40860;51.710;8.736;2022-12-20T23:28:16;9.90;99.90
54960;DHT22;40860;51.710;8.736;2022-12-20T23:32:19;9.80;99.90
54960;DHT22;40860;51.710;8.736;2022-12-20T23:36:21;9.70;99.90
54960;DHT22;40860;51.710;8.736;2022-12-20T23:40:26;9.60;99.90
54960;DHT22;40860;51.710;8.736;2022-12-20T23:44:29;9.60;99.90
54960;DHT22;40860;51.710;8.736;2022-12-20T23:48:32;9.50;99.90
54960;DHT22;40860;51.710;8.736;2022-12-20T23:52:35;9.40;99.90
54960;DHT22;40860;51.710;8.736;2022-12-20T23:56:39;9.40;99.90
